Time;durP1;ratioP1;P1;durP2;ratioP2;P2;SDS_P1;SDS_P2;PMS_P1;PMS_P2;Temp;Humidity;BMP_temperature;BMP_pressure;BME280_temperature;BME280_humidity;BME280_pressure;Samples;Min_cycle;Max_cycle;Signal;HPM_P1;HPM_P2
2022/11/12 00:11:27;;;;;;;3.63;2.23;;;21.20;59.70;;;;;;5924334;24;20376;-84
2022/11/12 00:14:18;;;;;;;3.30;2.23;;;21.20;59.70;;;;;;5901620;24;20388;-84
2022/11/12 00:17:25;;;;;;;2.43;2.00;;;21.20;59.80;;;;;;5925349;24;20387;-84
2022/11/12 00:26:58;;;;;;;3.60;2.40;;;21.20;59.70;;;;;;5926835;24;20464;-84
2022/11/12 00:29:39;;;;;;;4.50;2.60;;;21.20;59.70;;;;;;5903326;24;20395;-84
2022/11/12 00:32:21;;;;;;;5.63;2.50;;;21.20;59.80;;;;;;5926546;24;20444;-84
2022/11/12 00:34:59;;;;;;;2.53;2.20;;;21.20;59.70;;;;;;5926379;24;20452;-84
2022/11/12 00:37:59;;;;;;;;;;;;;;;;;;;;;
2022/11/12 00:40:44;;;;;;;;;;;;;;;;;;;;;
2022/11/12 00:53:02;;;;;;;;;;;;;;;;;;;;;
2022/11/12 00:56:04;;;;;;;3.07;2.27;;;21.20;59.70;;;;;;5953946;24;20367;-85
2022/11/12 00:58:56;;;;;;;;;;;;;;;;;;;;;
2022/11/12 01:02:30;;;;;;;2.73;2.00;;;21.20;59.70;;;;;;5926197;24;20388;-85
2022/11/12 01:05:28;;;;;;;4.60;2.40;;;21.20;59.70;;;;;;5925764;24;20412;-85
2022/11/12 01:08:44;;;;;;;3.20;2.60;;;21.20;59.70;;;;;;5925931;24;20357;-85
2022/11/12 01:11:39;;;;;;;3.40;2.67;;;21.10;59.60;;;;;;5944413;23;20372;-85
2022/11/12 01:24:32;;;;;;;3.40;2.23;;;21.10;59.60;;;;;;6037293;23;20415;-85
2022/11/12 01:27:11;;;;;;;2.63;2.30;;;21.10;59.70;;;;;;6037399;23;20381;-85
2022/11/12 01:29:59;;;;;;;7.10;2.83;;;21.10;59.70;;;;;;6030890;23;20396;-85
2022/11/12 01:32:43;;;;;;;3.83;2.20;;;21.10;59.70;;;;;;6036693;23;20380;-85
2022/11/12 01:35:25;;;;;;;;;;;;;;;;;;;;;
2022/11/12 01:37:57;;;;;;;4.50;2.50;;;21.10;59.60;;;;;;6184211;23;20361;-84
2022/11/12 01:40:33;;;;;;;;;;;;;;;;;;;;;
2022/11/12 01:43:13;;;;;;;3.00;2.50;;;21.10;59.60;;;;;;6184101;23;20368;-84
2022/11/12 01:46:22;;;;;;;2.87;2.00;;;21.20;59.70;;;;;;6158501;23;20376;-84
2022/11/12 01:48:59;;;;;;;2.40;2.00;;;21.10;59.60;;;;;;6183078;23;20373;-84
2022/11/12 01:51:50;;;;;;;;;;;;;;;;;;;;;
2022/11/12 01:54:28;;;;;;;3.63;2.37;;;21.20;59.70;;;;;;6183968;23;20380;-84
2022/11/12 01:57:05;;;;;;;2.23;2.03;;;21.20;59.70;;;;;;6157292;23;20383;-84
2022/11/12 02:07:01;;;;;;;2.20;2.00;;;21.20;59.70;;;;;;6184156;23;20387;-84
2022/11/12 02:10:13;;;;;;;;;;;;;;;;;;;;;
2022/11/12 02:19:38;;;;;;;;;;;;;;;;;;;;;
2022/11/12 02:22:48;;;;;;;4.13;2.53;;;21.10;59.70;;;;;;6065317;23;20376;-84
2022/11/12 02:25:53;;;;;;;1.90;1.70;;;21.10;59.70;;;;;;6064605;23;20411;-85
2022/11/12 02:28:48;;;;;;;3.13;2.30;;;21.10;59.70;;;;;;6023292;23;20463;-84
2022/11/12 02:31:31;;;;;;;2.87;2.03;;;21.10;59.70;;;;;;6064675;23;20387;-84
2022/11/12 02:43:44;;;;;;;2.93;2.10;;;21.10;59.70;;;;;;6064896;23;20421;-84
2022/11/12 02:46:23;;;;;;;3.13;2.07;;;21.00;59.60;;;;;;6065173;23;20352;-84
2022/11/12 02:49:05;;;;;;;3.50;2.50;;;21.10;59.70;;;;;;6075586;23;20397;-84
2022/11/12 02:52:09;;;;;;;2.70;1.87;;;21.10;59.70;;;;;;6070247;23;20383;-84
2022/11/12 02:54:44;;;;;;;1.67;1.57;;;21.10;59.70;;;;;;6009070;23;20425;-84
2022/11/12 02:57:29;;;;;;;3.83;2.30;;;21.10;59.60;;;;;;6093669;23;20403;-84
2022/11/12 03:00:02;;;;;;;5.03;2.33;;;21.10;59.60;;;;;;6093085;23;20398;-84
2022/11/12 03:06:38;;;;;;;;;;;;;;;;;;;;;
2022/11/12 03:09:34;;;;;;;3.70;2.40;;;21.10;59.60;;;;;;6093682;23;20359;-84
2022/11/12 03:12:33;;;;;;;2.97;2.00;;;21.10;59.60;;;;;;6093211;23;20378;-84
2022/11/12 03:15:26;;;;;;;1.87;1.70;;;21.10;59.60;;;;;;6071153;23;20411;-84
2022/11/12 03:22:00;;;;;;;2.10;1.90;;;21.10;59.60;;;;;;6182861;23;20391;-84
2022/11/12 03:24:51;;;;;;;3.10;1.90;;;21.10;59.60;;;;;;6093040;23;20438;-84
2022/11/12 03:30:50;;;;;;;2.10;1.83;;;21.10;59.60;;;;;;6093754;23;20394;-84
2022/11/12 03:50:45;;;;;;;2.20;1.90;;;21.00;59.60;;;;;;5980669;23;20407;-84
2022/11/12 03:57:26;;;;;;;2.40;2.00;;;21.00;59.60;;;;;;5982029;24;20362;-84
2022/11/12 04:10:48;;;;;;;;;;;;;;;;;;;;;
2022/11/12 04:23:41;;;;;;;2.00;1.63;;;21.00;59.70;;;;;;5871500;24;20416;-85
2022/11/12 04:26:26;;;;;;;1.93;1.43;;;21.00;59.70;;;;;;5871880;24;20386;-85
2022/11/12 04:53:10;;;;;;;2.17;1.97;;;21.00;59.60;;;;;;5900458;24;20388;-85
2022/11/12 04:56:17;;;;;;;3.00;2.00;;;21.00;59.70;;;;;;5910180;24;20461;-85
2022/11/12 05:05:59;;;;;;;1.97;1.73;;;20.90;59.70;;;;;;5979822;24;20406;-85
2022/11/12 05:08:40;;;;;;;1.63;1.43;;;20.90;59.70;;;;;;5960812;23;20475;-85
2022/11/12 05:11:57;;;;;;;1.83;1.50;;;20.90;59.70;;;;;;6094668;23;20397;-85
2022/11/12 05:31:15;;;;;;;2.30;2.10;;;20.80;59.80;;;;;;6065781;23;20339;-84
2022/11/12 05:34:34;;;;;;;;;;;;;;;;;;;;;
2022/11/12 06:05:02;;;;;;;2.87;2.20;;;20.80;59.80;;;;;;5908413;24;20422;-84
2022/11/12 06:08:06;;;;;;;;;;;;;;;;;;;;;
2022/11/12 06:12:08;;;;;;;;;;;;;;;;;;;;;
2022/11/12 06:28:46;;;;;;;;;;;;;;;;;;;;;
2022/11/12 06:38:54;;;;;;;2.20;1.77;;;20.90;59.70;;;;;;5927531;24;20461;-85
2022/11/12 06:41:45;;;;;;;2.10;1.90;;;20.90;59.70;;;;;;5950770;24;20395;-85
2022/11/12 06:45:03;;;;;;;2.93;2.67;;;20.90;59.70;;;;;;5952216;24;20482;-85
2022/11/12 06:47:44;;;;;;;;;;;;;;;;;;;;;
2022/11/12 07:14:55;;;;;;;2.00;1.80;;;20.90;59.60;;;;;;5871399;24;20365;-84
2022/11/12 07:17:59;;;;;;;2.37;1.67;;;20.90;59.60;;;;;;5870971;24;20394;-84
2022/11/12 07:34:20;;;;;;;2.10;1.80;;;21.00;59.70;;;;;;5925810;24;20438;-84
2022/11/12 07:37:40;;;;;;;;;;;;;;;;;;;;;
2022/11/12 08:04:08;;;;;;;;;;;;;;;;;;;;;
2022/11/12 08:07:04;;;;;;;2.13;1.70;;;21.10;59.60;;;;;;5952255;24;20363;-85
